Time;durP1;ratioP1;P1;durP2;ratioP2;P2;SDS_P1;SDS_P2;PMS_P1;PMS_P2;Temp;Humidity;BMP_temperature;BMP_pressure;BME280_temperature;BME280_humidity;BME280_pressure;Samples;Min_cycle;Max_cycle;Signal;HPM_P1;HPM_P2
2022/02/19 00:00:16;;;;;;;4.60;1.85;;;;;;;;;;4975404;28;20038;-77
2022/02/19 00:02:41;;;;;;;3.92;1.27;;;;;;;;;;4971627;28;20047;-77
2022/02/19 00:05:07;;;;;;;5.35;1.90;;;;;;;;;;4972147;28;20110;-78
2022/02/19 00:07:33;;;;;;;4.72;1.27;;;;;;;;;;4988412;28;20035;-77
2022/02/19 00:09:58;;;;;;;4.15;1.10;;;;;;;;;;4971558;28;20126;-77
2022/02/19 00:12:24;;;;;;;4.00;1.10;;;;;;;;;;4972523;28;20453;-77
2022/02/19 00:14:51;;;;;;;4.82;1.50;;;;;;;;;;4972557;28;20046;-77
2022/02/19 00:17:16;;;;;;;4.80;1.33;;;;;;;;;;4955923;28;20030;-77
2022/02/19 00:19:42;;;;;;;5.15;1.17;;;;;;;;;;4971745;28;20071;-77
2022/02/19 00:22:07;;;;;;;4.82;1.30;;;;;;;;;;4972224;28;20046;-77
2022/02/19 00:24:33;;;;;;;5.03;1.33;;;;;;;;;;4971971;28;20034;-77
2022/02/19 00:26:58;;;;;;;6.03;1.60;;;;;;;;;;4987962;28;20117;-77
2022/02/19 00:29:24;;;;;;;4.60;1.38;;;;;;;;;;4988005;28;20067;-77
2022/02/19 00:31:50;;;;;;;4.85;1.42;;;;;;;;;;4971686;28;20427;-77
2022/02/19 00:34:15;;;;;;;4.25;1.48;;;;;;;;;;4989234;28;20077;-77
2022/02/19 00:36:41;;;;;;;4.60;1.65;;;;;;;;;;4970912;28;20116;-78
2022/02/19 00:39:06;;;;;;;4.63;1.30;;;;;;;;;;4939329;28;20039;-77
2022/02/19 00:41:32;;;;;;;5.25;1.30;;;;;;;;;;4955433;28;20034;-77
2022/02/19 00:43:57;;;;;;;4.07;1.40;;;;;;;;;;4955788;28;20101;-78
2022/02/19 00:46:24;;;;;;;5.63;1.40;;;;;;;;;;4955862;28;20039;-77
2022/02/19 00:48:49;;;;;;;4.90;1.42;;;;;;;;;;4955621;28;20114;-77
2022/02/19 00:51:15;;;;;;;5.45;1.73;;;;;;;;;;4955501;28;20035;-77
2022/02/19 00:53:40;;;;;;;3.90;1.13;;;;;;;;;;4955523;28;20039;-77
2022/02/19 00:56:09;;;;;;;5.88;1.48;;;;;;;;;;4955450;28;20524;-77
2022/02/19 00:58:35;;;;;;;3.53;1.05;;;;;;;;;;4962288;28;20034;-77
2022/02/19 01:01:01;;;;;;;4.60;1.92;;;;;;;;;;4991168;28;20038;-78
2022/02/19 01:03:26;;;;;;;3.70;1.10;;;;;;;;;;4974231;28;20050;-77
2022/02/19 01:05:52;;;;;;;5.10;1.50;;;;;;;;;;4990855;28;20034;-77
2022/02/19 01:08:17;;;;;;;5.50;1.13;;;;;;;;;;4988445;28;20042;-78
2022/02/19 01:10:42;;;;;;;4.63;1.20;;;;;;;;;;5023036;28;20041;-77
2022/02/19 01:13:08;;;;;;;4.53;1.35;;;;;;;;;;4989221;28;20069;-75
2022/02/19 01:15:33;;;;;;;4.60;1.00;;;;;;;;;;5013576;28;20034;-74
2022/02/19 01:17:59;;;;;;;3.97;1.00;;;;;;;;;;4995594;28;20037;-74
2022/02/19 01:20:25;;;;;;;5.50;1.77;;;;;;;;;;4980576;28;20146;-74
2022/02/19 01:22:50;;;;;;;4.78;1.33;;;;;;;;;;4975843;28;20048;-74
2022/02/19 01:25:16;;;;;;;3.70;1.08;;;;;;;;;;4971202;28;20118;-74
2022/02/19 01:27:41;;;;;;;3.60;1.15;;;;;;;;;;4971131;28;20453;-74
2022/02/19 01:30:08;;;;;;;4.43;1.40;;;;;;;;;;4969826;28;20035;-74
2022/02/19 01:32:34;;;;;;;3.72;1.20;;;;;;;;;;4983426;28;20505;-74
2022/02/19 01:35:00;;;;;;;5.10;1.80;;;;;;;;;;4964723;28;20096;-74
2022/02/19 01:37:26;;;;;;;4.55;1.90;;;;;;;;;;4990381;28;20497;-75
2022/02/19 01:39:52;;;;;;;4.43;1.20;;;;;;;;;;4990665;28;20041;-74
2022/02/19 01:42:17;;;;;;;4.18;1.15;;;;;;;;;;4990753;28;20049;-74
2022/02/19 01:44:45;;;;;;;6.45;1.35;;;;;;;;;;4952778;28;20504;-74
2022/02/19 01:47:10;;;;;;;4.20;1.20;;;;;;;;;;4990031;28;20076;-74
2022/02/19 01:49:36;;;;;;;4.72;1.33;;;;;;;;;;5006592;28;20432;-74
2022/02/19 01:52:01;;;;;;;6.82;2.00;;;;;;;;;;4990296;28;20039;-74
2022/02/19 01:54:26;;;;;;;5.40;1.35;;;;;;;;;;4977840;28;20034;-74
2022/02/19 01:56:55;;;;;;;4.97;1.50;;;;;;;;;;4993946;28;20393;-74
2022/02/19 01:59:21;;;;;;;3.53;1.20;;;;;;;;;;4999849;28;20035;-74
2022/02/19 02:01:46;;;;;;;6.28;1.92;;;;;;;;;;4970339;28;20619;-74
2022/02/19 02:04:12;;;;;;;5.68;1.52;;;;;;;;;;4993867;28;20547;-74
2022/02/19 02:06:38;;;;;;;4.57;1.20;;;;;;;;;;4992605;28;20093;-75
2022/02/19 02:09:04;;;;;;;4.93;1.30;;;;;;;;;;4989955;28;20039;-74
2022/02/19 02:11:30;;;;;;;6.57;1.92;;;;;;;;;;4974053;28;20039;-74
2022/02/19 02:13:55;;;;;;;5.15;1.23;;;;;;;;;;4974544;28;20406;-74
2022/02/19 02:16:21;;;;;;;3.45;0.90;;;;;;;;;;4983113;28;20116;-74
2022/02/19 02:18:46;;;;;;;4.30;1.27;;;;;;;;;;4977511;28;20038;-74
2022/02/19 02:21:12;;;;;;;4.70;1.08;;;;;;;;;;4977223;28;20053;-74
2022/02/19 02:23:37;;;;;;;4.85;1.38;;;;;;;;;;4977468;28;20429;-74
2022/02/19 02:26:03;;;;;;;5.72;1.13;;;;;;;;;;4977084;28;20035;-75
2022/02/19 02:28:28;;;;;;;5.43;1.45;;;;;;;;;;4977552;28;20448;-74
2022/02/19 02:30:54;;;;;;;3.65;1.20;;;;;;;;;;4976995;28;20077;-74
2022/02/19 02:33:21;;;;;;;4.45;2.00;;;;;;;;;;4975255;28;20057;-74
2022/02/19 02:35:51;;;;;;;4.90;1.75;;;;;;;;;;4974412;28;20050;-74
2022/02/19 02:38:16;;;;;;;4.47;1.20;;;;;;;;;;4975264;28;20121;-75
2022/02/19 02:40:42;;;;;;;3.60;1.00;;;;;;;;;;5009031;28;20042;-74
2022/02/19 02:43:07;;;;;;;3.15;1.02;;;;;;;;;;4977122;28;20627;-74
2022/02/19 02:45:33;;;;;;;5.78;1.55;;;;;;;;;;4993355;28;20104;-74
2022/02/19 02:47:58;;;;;;;4.63;1.73;;;;;;;;;;4976666;28;20038;-74
2022/02/19 02:50:24;;;;;;;4.07;1.20;;;;;;;;;;4992652;28;20117;-74
2022/02/19 02:52:49;;;;;;;5.05;1.38;;;;;;;;;;4992793;28;20042;-74
2022/02/19 02:55:15;;;;;;;4.68;1.30;;;;;;;;;;4992938;28;20057;-74
2022/02/19 02:57:40;;;;;;;3.85;1.33;;;;;;;;;;5004853;28;20108;-74
2022/02/19 03:00:07;;;;;;;4.88;1.40;;;;;;;;;;4984679;28;20037;-74
2022/02/19 03:02:34;;;;;;;5.25;2.15;;;;;;;;;;4991891;28;20042;-76
2022/02/19 03:05:06;;;;;;;4.13;1.25;;;;;;;;;;4975905;28;20515;-77
2022/02/19 03:07:32;;;;;;;3.47;1.10;;;;;;;;;;4992300;28;20564;-77
2022/02/19 03:09:57;;;;;;;3.63;1.30;;;;;;;;;;5004796;28;20527;-77
2022/02/19 03:12:27;;;;;;;4.28;1.05;;;;;;;;;;4976751;28;20117;-77
2022/02/19 03:14:52;;;;;;;4.90;1.30;;;;;;;;;;4992684;28;20034;-77
2022/02/19 03:17:18;;;;;;;4.40;1.15;;;;;;;;;;4992641;28;20045;-77
2022/02/19 03:19:45;;;;;;;5.03;1.10;;;;;;;;;;5008382;28;20057;-78
2022/02/19 03:22:12;;;;;;;3.88;1.20;;;;;;;;;;5004624;28;20042;-78
2022/02/19 03:24:38;;;;;;;4.78;0.93;;;;;;;;;;4967134;28;20077;-78
2022/02/19 03:27:04;;;;;;;5.15;1.48;;;;;;;;;;5025091;28;20030;-78
2022/02/19 03:29:29;;;;;;;5.60;1.58;;;;;;;;;;4978631;28;20030;-78
2022/02/19 03:31:55;;;;;;;4.53;1.38;;;;;;;;;;5024719;28;20413;-78
2022/02/19 03:34:21;;;;;;;5.43;1.00;;;;;;;;;;4976505;28;20054;-78
2022/02/19 03:36:46;;;;;;;3.00;0.80;;;;;;;;;;4992293;28;20073;-78
2022/02/19 03:39:11;;;;;;;3.85;1.08;;;;;;;;;;4975803;28;20041;-78
2022/02/19 03:41:37;;;;;;;3.83;1.25;;;;;;;;;;4959145;28;20038;-78
2022/02/19 03:44:03;;;;;;;4.93;1.25;;;;;;;;;;4959457;28;20104;-78
2022/02/19 03:46:31;;;;;;;5.90;1.20;;;;;;;;;;4975849;28;20112;-78
2022/02/19 03:48:57;;;;;;;3.55;1.17;;;;;;;;;;4959341;28;20038;-78
2022/02/19 03:51:23;;;;;;;5.55;1.38;;;;;;;;;;4975665;28;20038;-78
2022/02/19 03:53:48;;;;;;;4.13;1.23;;;;;;;;;;5008040;28;20069;-78
2022/02/19 03:56:14;;;;;;;5.18;1.30;;;;;;;;;;4981429;28;20035;-78
2022/02/19 03:58:39;;;;;;;5.82;1.30;;;;;;;;;;4972377;28;20096;-78
2022/02/19 04:01:06;;;;;;;5.30;1.40;;;;;;;;;;4955264;28;20057;-78
2022/02/19 04:03:31;;;;;;;4.20;1.42;;;;;;;;;;4967829;28;20492;-79
2022/02/19 04:05:57;;;;;;;4.13;0.90;;;;;;;;;;4975132;28;20033;-78
2022/02/19 04:08:23;;;;;;;6.22;1.00;;;;;;;;;;4975852;28;20049;-78
2022/02/19 04:10:49;;;;;;;4.68;1.13;;;;;;;;;;4991102;28;20046;-78
2022/02/19 04:13:14;;;;;;;3.85;1.33;;;;;;;;;;4991445;28;20077;-78
2022/02/19 04:15:40;;;;;;;4.60;1.55;;;;;;;;;;4974773;28;20065;-78
2022/02/19 04:18:05;;;;;;;2.92;1.00;;;;;;;;;;4991225;28;20041;-78
2022/02/19 04:20:31;;;;;;;3.55;1.17;;;;;;;;;;4975079;28;20042;-78
2022/02/19 04:22:56;;;;;;;3.42;0.90;;;;;;;;;;4974142;28;20125;-78
2022/02/19 04:25:27;;;;;;;5.82;1.10;;;;;;;;;;4974303;28;20031;-78
2022/02/19 04:27:54;;;;;;;6.40;1.27;;;;;;;;;;4974983;28;20045;-78
2022/02/19 04:30:19;;;;;;;3.60;1.17;;;;;;;;;;4990237;28;20042;-78
2022/02/19 04:32:45;;;;;;;4.93;1.33;;;;;;;;;;4971068;28;20109;-78
2022/02/19 04:35:11;;;;;;;4.25;1.08;;;;;;;;;;4993805;28;20034;-78
2022/02/19 04:37:37;;;;;;;4.97;1.10;;;;;;;;;;4939866;28;20042;-78
2022/02/19 04:40:03;;;;;;;3.50;0.77;;;;;;;;;;4939554;28;20026;-78
2022/02/19 04:42:29;;;;;;;3.55;0.88;;;;;;;;;;4956002;28;20409;-78
2022/02/19 04:44:54;;;;;;;5.03;1.20;;;;;;;;;;4955567;28;20027;-78
2022/02/19 04:47:20;;;;;;;4.78;1.20;;;;;;;;;;4967360;28;20061;-78
2022/02/19 04:49:46;;;;;;;3.42;1.00;;;;;;;;;;4990854;28;20038;-78
2022/02/19 04:52:11;;;;;;;4.43;0.98;;;;;;;;;;4990270;28;20592;-77
2022/02/19 04:54:37;;;;;;;5.93;1.73;;;;;;;;;;4990903;28;20038;-79
2022/02/19 04:57:02;;;;;;;3.55;1.50;;;;;;;;;;4991057;28;20401;-79
2022/02/19 04:59:28;;;;;;;3.92;0.93;;;;;;;;;;4977860;28;20057;-80
2022/02/19 05:01:53;;;;;;;4.28;1.02;;;;;;;;;;4955470;28;20394;-79
2022/02/19 05:04:19;;;;;;;3.60;0.93;;;;;;;;;;4969640;28;20038;-79
2022/02/19 05:06:45;;;;;;;3.72;0.93;;;;;;;;;;4974379;28;20044;-79
2022/02/19 05:09:10;;;;;;;6.47;1.67;;;;;;;;;;4974407;28;20038;-79
2022/02/19 05:11:36;;;;;;;4.55;1.10;;;;;;;;;;4958211;28;20050;-79
2022/02/19 05:14:01;;;;;;;5.57;0.82;;;;;;;;;;4958478;28;20413;-79
2022/02/19 05:16:27;;;;;;;4.65;1.20;;;;;;;;;;4942561;28;20488;-79
2022/02/19 05:18:52;;;;;;;4.60;1.23;;;;;;;;;;4954802;28;20042;-80
2022/02/19 05:21:17;;;;;;;4.20;1.30;;;;;;;;;;4955157;28;20050;-79
2022/02/19 05:23:43;;;;;;;4.05;1.58;;;;;;;;;;4955083;28;20453;-79
2022/02/19 05:26:08;;;;;;;5.20;1.30;;;;;;;;;;4954939;28;20390;-79
2022/02/19 05:28:34;;;;;;;4.05;1.27;;;;;;;;;;4957843;28;20433;-79
2022/02/19 05:31:01;;;;;;;3.90;1.02;;;;;;;;;;4958847;28;20035;-79
2022/02/19 05:33:26;;;;;;;3.58;0.88;;;;;;;;;;4975177;28;20042;-79
2022/02/19 05:35:52;;;;;;;4.50;1.10;;;;;;;;;;4994232;28;20045;-80
2022/02/19 05:38:17;;;;;;;6.45;1.30;;;;;;;;;;5010635;28;20064;-79
2022/02/19 05:40:42;;;;;;;5.20;1.30;;;;;;;;;;4993665;28;20038;-79
2022/02/19 05:43:08;;;;;;;5.00;1.63;;;;;;;;;;4977647;28;20054;-79
2022/02/19 05:45:33;;;;;;;4.38;1.15;;;;;;;;;;4961667;28;20460;-79
2022/02/19 05:47:59;;;;;;;5.00;1.17;;;;;;;;;;4977731;28;20046;-79
2022/02/19 05:50:25;;;;;;;5.10;1.75;;;;;;;;;;4978387;28;20114;-79
2022/02/19 05:52:51;;;;;;;3.97;0.95;;;;;;;;;;4978275;28;20046;-79
2022/02/19 05:55:16;;;;;;;5.13;1.38;;;;;;;;;;4978066;28;20153;-79
2022/02/19 05:57:42;;;;;;;5.78;1.00;;;;;;;;;;4976881;28;20034;-79
2022/02/19 06:00:09;;;;;;;4.30;1.58;;;;;;;;;;4975667;28;20035;-79
2022/02/19 06:02:35;;;;;;;6.55;1.17;;;;;;;;;;4958258;28;20832;-79
2022/02/19 06:05:01;;;;;;;3.80;1.20;;;;;;;;;;4942303;28;20115;-79
2022/02/19 06:07:27;;;;;;;6.97;1.50;;;;;;;;;;4974565;28;20030;-79
2022/02/19 06:09:52;;;;;;;5.05;0.98;;;;;;;;;;4958086;28;20034;-79
2022/02/19 06:12:17;;;;;;;3.15;1.10;;;;;;;;;;4977072;28;20038;-80
2022/02/19 06:14:43;;;;;;;4.95;1.20;;;;;;;;;;4977369;28;20408;-79
2022/02/19 06:17:08;;;;;;;3.88;1.00;;;;;;;;;;4977723;28;20486;-79
2022/02/19 06:19:34;;;;;;;3.97;1.17;;;;;;;;;;4976311;28;20039;-77
2022/02/19 06:21:59;;;;;;;4.30;1.35;;;;;;;;;;4991063;28;20034;-77
2022/02/19 06:24:25;;;;;;;2.90;1.08;;;;;;;;;;4993105;28;20045;-77
2022/02/19 06:26:50;;;;;;;3.45;1.20;;;;;;;;;;4992930;28;20034;-76
2022/02/19 06:29:16;;;;;;;5.40;1.13;;;;;;;;;;4977163;28;20117;-77
2022/02/19 06:31:41;;;;;;;4.07;0.98;;;;;;;;;;4976905;28;20038;-76
2022/02/19 06:34:06;;;;;;;4.85;1.35;;;;;;;;;;5009221;28;20082;-77
2022/02/19 06:36:32;;;;;;;5.18;1.20;;;;;;;;;;4977283;28;20049;-77
2022/02/19 06:38:57;;;;;;;3.88;0.93;;;;;;;;;;4993339;28;20065;-77
2022/02/19 06:41:23;;;;;;;3.60;0.93;;;;;;;;;;4992506;28;20054;-77
2022/02/19 06:43:48;;;;;;;4.28;1.35;;;;;;;;;;4976928;28;20042;-78
2022/02/19 06:46:14;;;;;;;4.03;1.05;;;;;;;;;;4992722;28;20038;-78
2022/02/19 06:48:39;;;;;;;3.83;0.75;;;;;;;;;;4993307;28;20408;-78
2022/02/19 06:51:05;;;;;;;5.03;1.17;;;;;;;;;;4960761;28;20042;-78
2022/02/19 06:53:30;;;;;;;6.80;1.20;;;;;;;;;;4990885;28;20053;-77
2022/02/19 06:55:55;;;;;;;4.50;1.30;;;;;;;;;;4975025;28;20488;-76
2022/02/19 06:58:21;;;;;;;4.18;1.10;;;;;;;;;;4949920;28;20042;-77
2022/02/19 07:00:51;;;;;;;4.28;1.08;;;;;;;;;;5009202;28;20464;-77
2022/02/19 07:03:17;;;;;;;4.65;1.15;;;;;;;;;;4991758;28;20062;-77
2022/02/19 07:05:43;;;;;;;6.32;2.33;;;;;;;;;;4964348;28;20042;-77
2022/02/19 07:08:08;;;;;;;10.80;1.60;;;;;;;;;;5009152;28;20093;-77
2022/02/19 07:10:34;;;;;;;4.85;1.45;;;;;;;;;;5007195;28;20042;-77
2022/02/19 07:12:59;;;;;;;5.13;1.70;;;;;;;;;;4992844;28;20092;-77
2022/02/19 07:15:24;;;;;;;11.05;2.58;;;;;;;;;;5008867;28;20460;-77
2022/02/19 07:17:54;;;;;;;6.22;1.67;;;;;;;;;;4982979;28;20464;-77
2022/02/19 07:20:23;;;;;;;8.40;1.55;;;;;;;;;;5001526;28;20042;-77
2022/02/19 07:22:49;;;;;;;7.00;1.63;;;;;;;;;;4963081;28;20023;-77
2022/02/19 07:25:14;;;;;;;6.65;1.67;;;;;;;;;;5008382;28;20046;-77
2022/02/19 07:27:41;;;;;;;8.02;1.73;;;;;;;;;;4997292;28;20038;-77
2022/02/19 07:30:07;;;;;;;4.35;1.40;;;;;;;;;;4975263;28;20069;-77
2022/02/19 07:32:36;;;;;;;7.60;1.98;;;;;;;;;;4991500;28;20066;-77
2022/02/19 07:35:03;;;;;;;6.68;1.98;;;;;;;;;;5007731;28;20515;-77
2022/02/19 07:37:28;;;;;;;7.50;1.88;;;;;;;;;;4975912;28;20118;-77
2022/02/19 07:39:54;;;;;;;5.10;1.52;;;;;;;;;;4990849;28;20508;-77
2022/02/19 07:42:20;;;;;;;6.68;2.05;;;;;;;;;;4969373;28;20526;-77
2022/02/19 07:44:45;;;;;;;9.23;2.33;;;;;;;;;;4978787;28;20420;-77
2022/02/19 07:47:11;;;;;;;5.30;1.40;;;;;;;;;;4991184;28;20093;-77
2022/02/19 08:00:32;;;;;;;7.32;2.05;;;;;;;;;;4991904;28;20088;-77
2022/02/19 08:02:58;;;;;;;6.30;2.20;;;;;;;;;;4990934;28;20259;-77
2022/02/19 08:05:23;;;;;;;8.40;2.58;;;;;;;;;;4978372;28;20382;-77
2022/02/19 08:07:50;;;;;;;8.15;3.47;;;;;;;;;;4972020;28;20047;-77
2022/02/19 08:10:15;;;;;;;6.70;2.72;;;;;;;;;;4955729;28;20050;-77
2022/02/19 08:12:40;;;;;;;9.57;2.60;;;;;;;;;;4972099;28;20417;-77
2022/02/19 08:15:06;;;;;;;5.90;2.45;;;;;;;;;;4988370;28;20097;-77
2022/02/19 08:17:32;;;;;;;8.75;3.22;;;;;;;;;;4971898;28;20031;-77
2022/02/19 08:19:58;;;;;;;7.78;2.92;;;;;;;;;;4971947;28;20069;-77
2022/02/19 08:22:23;;;;;;;8.85;2.95;;;;;;;;;;4972177;28;20035;-77
2022/02/19 08:24:48;;;;;;;8.88;2.63;;;;;;;;;;4971505;28;20445;-77
2022/02/19 08:27:14;;;;;;;5.53;3.13;;;;;;;;;;4971692;28;20445;-77
2022/02/19 08:29:42;;;;;;;8.27;3.35;;;;;;;;;;4955754;28;20086;-77
2022/02/19 08:32:08;;;;;;;7.53;2.80;;;;;;;;;;4961600;28;20118;-77
2022/02/19 08:34:33;;;;;;;8.40;2.50;;;;;;;;;;5007416;28;20034;-77
2022/02/19 08:36:59;;;;;;;8.25;2.80;;;;;;;;;;5007623;28;20050;-77
2022/02/19 08:39:24;;;;;;;9.57;2.60;;;;;;;;;;4974453;28;20504;-77
2022/02/19 08:41:50;;;;;;;6.03;2.65;;;;;;;;;;4991008;28;20057;-77
2022/02/19 08:44:15;;;;;;;7.05;2.00;;;;;;;;;;4974903;28;20042;-77
2022/02/19 08:46:40;;;;;;;8.00;2.58;;;;;;;;;;5006103;28;20050;-77
2022/02/19 08:49:06;;;;;;;9.23;3.03;;;;;;;;;;4990717;28;20417;-77
2022/02/19 08:51:31;;;;;;;7.43;2.65;;;;;;;;;;5007091;28;20493;-79
2022/02/19 08:53:57;;;;;;;9.05;2.38;;;;;;;;;;4990563;28;20042;-78
2022/02/19 08:56:22;;;;;;;7.43;2.55;;;;;;;;;;4992180;28;20042;-78
2022/02/19 08:58:47;;;;;;;5.25;1.55;;;;;;;;;;4983259;28;20036;-78
2022/02/19 09:01:13;;;;;;;7.43;2.58;;;;;;;;;;4955843;28;20049;-78
2022/02/19 09:03:38;;;;;;;8.52;2.70;;;;;;;;;;4943049;28;20077;-78
2022/02/19 09:06:04;;;;;;;4.50;1.95;;;;;;;;;;4959482;28;20101;-78
2022/02/19 09:08:29;;;;;;;5.57;1.80;;;;;;;;;;4942996;28;20035;-78
2022/02/19 09:10:55;;;;;;;5.43;1.63;;;;;;;;;;4959105;28;20054;-78
2022/02/19 09:13:20;;;;;;;7.60;2.08;;;;;;;;;;4975273;28;20466;-78
2022/02/19 09:15:48;;;;;;;4.53;1.70;;;;;;;;;;4959224;28;20039;-78
2022/02/19 09:18:13;;;;;;;7.35;2.20;;;;;;;;;;4975238;28;20031;-78
2022/02/19 09:20:38;;;;;;;7.18;2.35;;;;;;;;;;4959013;28;20039;-78
2022/02/19 09:23:04;;;;;;;7.25;2.22;;;;;;;;;;4959102;28;20081;-78
2022/02/19 09:25:29;;;;;;;4.55;1.40;;;;;;;;;;4975129;28;20042;-78
2022/02/19 09:27:55;;;;;;;8.80;2.15;;;;;;;;;;4928286;28;20085;-78
2022/02/19 09:30:20;;;;;;;7.75;2.47;;;;;;;;;;4956790;28;20050;-78
2022/02/19 09:32:46;;;;;;;6.38;2.70;;;;;;;;;;4968686;28;20050;-77
2022/02/19 09:35:12;;;;;;;7.85;2.28;;;;;;;;;;4993274;28;20039;-78
2022/02/19 09:37:39;;;;;;;10.20;2.70;;;;;;;;;;5010035;28;20070;-78
2022/02/19 09:40:05;;;;;;;5.97;2.63;;;;;;;;;;5008397;28;20073;-78
2022/02/19 09:42:30;;;;;;;6.15;2.13;;;;;;;;;;4976285;28;20084;-77
2022/02/19 09:44:57;;;;;;;6.35;2.63;;;;;;;;;;4976560;28;20121;-78
2022/02/19 09:47:27;;;;;;;7.20;3.00;;;;;;;;;;4992350;28;20508;-78
2022/02/19 09:49:53;;;;;;;7.03;2.50;;;;;;;;;;4991842;28;20023;-78
2022/02/19 09:52:19;;;;;;;11.43;2.63;;;;;;;;;;4993062;28;20045;-77
2022/02/19 09:54:44;;;;;;;8.93;2.72;;;;;;;;;;5010543;28;20476;-78
2022/02/19 09:57:09;;;;;;;11.02;2.42;;;;;;;;;;4994178;28;20031;-77
2022/02/19 09:59:35;;;;;;;8.07;2.35;;;;;;;;;;4996678;28;20039;-78
2022/02/19 10:02:04;;;;;;;8.07;2.28;;;;;;;;;;4974601;28;20046;-77
2022/02/19 10:04:29;;;;;;;4.82;1.80;;;;;;;;;;4958503;28;20038;-77
2022/02/19 10:06:57;;;;;;;10.02;2.40;;;;;;;;;;4959008;28;20117;-77
2022/02/19 10:09:24;;;;;;;6.13;2.28;;;;;;;;;;4941802;28;20042;-76
2022/02/19 10:11:49;;;;;;;6.53;2.28;;;;;;;;;;4942981;28;20046;-77
2022/02/19 10:14:22;;;;;;;8.98;2.47;;;;;;;;;;4958078;28;20039;-78
2022/02/19 10:17:22;;;;;;;12.32;2.38;;;;;;;;;;4959898;28;20045;-78
2022/02/19 10:20:07;;;;;;;8.35;2.00;;;;;;;;;;4946142;28;20039;-78
2022/02/19 10:22:40;;;;;;;9.15;2.03;;;;;;;;;;4959465;28;20034;-77
2022/02/19 10:25:07;;;;;;;7.38;2.92;;;;;;;;;;4943732;28;20034;-78
2022/02/19 10:27:45;;;;;;;10.07;2.00;;;;;;;;;;4959091;28;20035;-78
2022/02/19 10:30:21;;;;;;;8.50;1.95;;;;;;;;;;4974180;28;20571;-77
2022/02/19 10:32:50;;;;;;;11.07;2.05;;;;;;;;;;4954326;28;20085;-77
2022/02/19 10:35:15;;;;;;;13.30;3.20;;;;;;;;;;4992954;28;20517;-78
2022/02/19 10:37:50;;;;;;;7.38;1.98;;;;;;;;;;5010456;28;20073;-78
2022/02/19 10:40:36;;;;;;;16.60;1.90;;;;;;;;;;5010164;28;20038;-78
2022/02/19 10:43:04;;;;;;;9.48;2.15;;;;;;;;;;4993357;28;20088;-80
2022/02/19 10:45:31;;;;;;;5.40;1.60;;;;;;;;;;4992989;28;20058;-79
2022/02/19 10:48:21;;;;;;;4.13;1.98;;;;;;;;;;4992862;28;20065;-79
2022/02/19 10:50:47;;;;;;;6.82;1.38;;;;;;;;;;4976982;28;20493;-79
2022/02/19 10:53:27;;;;;;;6.45;1.90;;;;;;;;;;4992756;28;20038;-79
2022/02/19 10:55:53;;;;;;;7.90;1.95;;;;;;;;;;4993015;28;20085;-79
2022/02/19 10:58:19;;;;;;;7.63;2.45;;;;;;;;;;4989431;28;20034;-79
2022/02/19 11:00:44;;;;;;;7.72;2.17;;;;;;;;;;4941859;28;20129;-79
2022/02/19 11:03:10;;;;;;;7.20;2.13;;;;;;;;;;4956712;28;20058;-80
2022/02/19 11:05:35;;;;;;;6.80;2.25;;;;;;;;;;4956742;28;20038;-79
2022/02/19 11:08:01;;;;;;;10.70;3.10;;;;;;;;;;4957128;28;20039;-79
2022/02/19 11:10:28;;;;;;;7.22;2.42;;;;;;;;;;4941560;28;20039;-79
2022/02/19 11:12:55;;;;;;;5.72;1.83;;;;;;;;;;4973205;28;20070;-78
2022/02/19 11:15:23;;;;;;;6.85;2.17;;;;;;;;;;4957301;28;20043;-79
2022/02/19 11:17:48;;;;;;;5.55;1.88;;;;;;;;;;4972723;28;20054;-78
2022/02/19 11:20:14;;;;;;;4.97;1.55;;;;;;;;;;4972905;28;20035;-78
2022/02/19 11:22:40;;;;;;;11.60;2.78;;;;;;;;;;4956855;28;20073;-79
2022/02/19 11:25:07;;;;;;;5.35;1.55;;;;;;;;;;4955720;28;20086;-79
2022/02/19 11:27:35;;;;;;;4.50;1.80;;;;;;;;;;4941142;28;20034;-80
2022/02/19 11:30:05;;;;;;;6.32;1.55;;;;;;;;;;4941390;28;20031;-79
2022/02/19 11:32:31;;;;;;;4.85;1.40;;;;;;;;;;4950059;28;20061;-79
2022/02/19 11:34:56;;;;;;;7.38;1.75;;;;;;;;;;4991994;28;20262;-79
2022/02/19 11:37:23;;;;;;;7.63;1.73;;;;;;;;;;4992693;28;20096;-79
2022/02/19 11:40:10;;;;;;;6.00;1.60;;;;;;;;;;5008047;28;20030;-79
2022/02/19 11:42:42;;;;;;;7.43;4.55;;;;;;;;;;4992242;28;20035;-79
2022/02/19 11:45:24;;;;;;;18.30;11.93;;;;;;;;;;4975705;28;20485;-79
2022/02/19 11:48:10;;;;;;;18.45;16.73;;;;;;;;;;4973573;28;20069;-79
2022/02/19 11:50:40;;;;;;;22.02;20.25;;;;;;;;;;4989787;28;20081;-79
2022/02/19 11:53:12;;;;;;;23.20;21.20;;;;;;;;;;5006086;28;20113;-79
2022/02/19 11:55:37;;;;;;;18.27;16.55;;;;;;;;;;4991295;28;20031;-79
2022/02/19 11:58:07;;;;;;;16.50;14.82;;;;;;;;;;4989678;28;20042;-79
2022/02/19 12:01:01;;;;;;;16.50;14.90;;;;;;;;;;4954789;28;20035;-79
2022/02/19 12:03:34;;;;;;;16.35;14.73;;;;;;;;;;4940822;28;20054;-79
2022/02/19 12:06:15;;;;;;;15.63;14.23;;;;;;;;;;4941366;28;20485;-79
2022/02/19 12:08:46;;;;;;;15.68;13.80;;;;;;;;;;4973279;28;20098;-79
2022/02/19 12:11:11;;;;;;;14.70;13.40;;;;;;;;;;4972330;28;20440;-79
2022/02/19 12:13:50;;;;;;;13.63;12.23;;;;;;;;;;4955802;28;20031;-79
2022/02/19 12:16:28;;;;;;;12.82;11.70;;;;;;;;;;4971910;28;20066;-78
2022/02/19 12:18:57;;;;;;;13.30;12.20;;;;;;;;;;4973384;28;20508;-79
2022/02/19 12:21:39;;;;;;;12.65;11.40;;;;;;;;;;4940696;28;20101;-78
2022/02/19 12:24:25;;;;;;;14.07;12.60;;;;;;;;;;4972277;28;20037;-79
2022/02/19 12:26:57;;;;;;;12.05;10.70;;;;;;;;;;4990811;28;20042;-79
2022/02/19 12:29:28;;;;;;;11.18;9.95;;;;;;;;;;4992048;28;20042;-79
2022/02/19 12:32:09;;;;;;;11.57;10.32;;;;;;;;;;4991428;28;20035;-79
2022/02/19 12:34:38;;;;;;;10.40;9.32;;;;;;;;;;5007625;28;20042;-79
2022/02/19 12:37:05;;;;;;;10.98;9.88;;;;;;;;;;5007211;28;20093;-79
2022/02/19 12:39:33;;;;;;;10.65;8.95;;;;;;;;;;4991046;28;20120;-79
2022/02/19 12:41:58;;;;;;;11.68;8.52;;;;;;;;;;4991436;28;20045;-79
2022/02/19 12:44:24;;;;;;;9.35;8.35;;;;;;;;;;4990768;28;20409;-79
2022/02/19 12:46:52;;;;;;;10.00;9.00;;;;;;;;;;4974669;28;20042;-79
2022/02/19 12:49:19;;;;;;;8.10;7.22;;;;;;;;;;4957577;28;20034;-79
2022/02/19 12:51:50;;;;;;;9.57;7.88;;;;;;;;;;4990610;28;20042;-79
2022/02/19 12:54:40;;;;;;;9.15;7.82;;;;;;;;;;4958766;28;20034;-79
2022/02/19 12:57:06;;;;;;;8.75;6.78;;;;;;;;;;4990992;28;20557;-79
2022/02/19 12:59:33;;;;;;;8.15;6.45;;;;;;;;;;4950111;28;20096;-79
2022/02/19 13:01:59;;;;;;;11.27;7.18;;;;;;;;;;4991274;28;20119;-79
2022/02/19 13:04:33;;;;;;;7.78;6.40;;;;;;;;;;4974876;28;20046;-79
2022/02/19 13:06:59;;;;;;;7.95;6.47;;;;;;;;;;4990866;28;20043;-79
2022/02/19 13:09:26;;;;;;;7.68;6.20;;;;;;;;;;4974547;28;20042;-79
2022/02/19 13:11:52;;;;;;;7.95;5.93;;;;;;;;;;4975052;28;20045;-79
2022/02/19 13:14:18;;;;;;;9.23;6.20;;;;;;;;;;4974198;28;20066;-79
2022/02/19 13:17:04;;;;;;;7.60;5.20;;;;;;;;;;4974977;28;20040;-79
2022/02/19 13:19:33;;;;;;;8.43;4.53;;;;;;;;;;4974618;28;20046;-79
2022/02/19 13:22:09;;;;;;;9.73;5.00;;;;;;;;;;4990722;28;20045;-80
2022/02/19 13:24:36;;;;;;;7.65;4.78;;;;;;;;;;4990564;28;20034;-80
2022/02/19 13:27:15;;;;;;;7.88;4.82;;;;;;;;;;4990474;28;20084;-79
2022/02/19 13:29:55;;;;;;;7.65;4.70;;;;;;;;;;5006743;28;20804;-79
2022/02/19 13:32:31;;;;;;;7.65;4.50;;;;;;;;;;4974390;28;20052;-79
2022/02/19 13:35:00;;;;;;;6.00;3.92;;;;;;;;;;4973838;28;20088;-79
2022/02/19 13:37:32;;;;;;;7.40;4.40;;;;;;;;;;4974249;28;20045;-80
2022/02/19 13:40:12;;;;;;;8.07;4.53;;;;;;;;;;4974177;28;20085;-79
2022/02/19 13:42:53;;;;;;;6.72;3.92;;;;;;;;;;4988288;28;20509;-79
2022/02/19 13:45:29;;;;;;;9.43;4.45;;;;;;;;;;4987985;28;20038;-79
2022/02/19 13:47:55;;;;;;;6.97;3.75;;;;;;;;;;4988855;28;20057;-79
2022/02/19 13:50:41;;;;;;;6.47;3.80;;;;;;;;;;4993728;28;20057;-79
2022/02/19 13:53:11;;;;;;;6.72;3.72;;;;;;;;;;4994231;28;20034;-80
2022/02/19 13:55:38;;;;;;;6.03;3.80;;;;;;;;;;4977707;28;20034;-81
2022/02/19 13:58:17;;;;;;;7.20;3.63;;;;;;;;;;4993784;28;20045;-80
2022/02/19 14:00:44;;;;;;;5.35;3.60;;;;;;;;;;4994006;28;20035;-80
2022/02/19 14:03:09;;;;;;;6.95;4.05;;;;;;;;;;4977091;28;20046;-81
2022/02/19 14:05:48;;;;;;;6.80;4.20;;;;;;;;;;4993541;28;20117;-80
2022/02/19 14:08:14;;;;;;;7.10;4.25;;;;;;;;;;4993711;28;20069;-80
2022/02/19 14:10:57;;;;;;;6.78;4.35;;;;;;;;;;4993217;28;20038;-80
2022/02/19 14:13:23;;;;;;;;;;;;;;;;;;4994217;28;20479;-80
2022/02/19 14:15:48;;;;;;;7.28;3.63;;;;;;;;;;4993263;28;19953;-80
2022/02/19 14:18:14;;;;;;;6.47;3.72;;;;;;;;;;4977728;28;20049;-81
2022/02/19 14:20:41;;;;;;;7.57;3.60;;;;;;;;;;4977486;28;20042;-81
2022/02/19 14:23:27;;;;;;;7.07;3.70;;;;;;;;;;4975365;28;20369;-80
2022/02/19 14:25:57;;;;;;;6.25;4.20;;;;;;;;;;4971940;28;20041;-80
2022/02/19 14:28:28;;;;;;;6.97;4.22;;;;;;;;;;4978967;28;20042;-80
2022/02/19 14:30:56;;;;;;;6.35;3.83;;;;;;;;;;4959788;28;20042;-80
2022/02/19 14:33:21;;;;;;;8.10;3.40;;;;;;;;;;4975234;28;20404;-80
2022/02/19 14:35:47;;;;;;;7.15;3.60;;;;;;;;;;4991289;28;20057;-80
2022/02/19 14:38:26;;;;;;;7.18;3.60;;;;;;;;;;4972940;28;20035;-80
2022/02/19 14:40:56;;;;;;;5.10;3.08;;;;;;;;;;4975243;28;20118;-80
2022/02/19 14:43:22;;;;;;;7.47;3.55;;;;;;;;;;4955749;28;20453;-80
2022/02/19 14:45:48;;;;;;;8.68;3.13;;;;;;;;;;4992194;28;20092;-81
2022/02/19 14:48:14;;;;;;;6.55;2.80;;;;;;;;;;4960529;28;20042;-79
2022/02/19 14:50:40;;;;;;;10.57;3.28;;;;;;;;;;4943042;28;20074;-80
2022/02/19 14:53:05;;;;;;;6.82;3.25;;;;;;;;;;4965190;28;20038;-80